sensor_id;sensor_type;location;lat;lon;timestamp;P1;durP1;ratioP1;P2;durP2;ratioP2
39620;SDS011;25309;48.686;9.170;2023-07-29T00:01:57;2.33;;;1.57;;
39620;SDS011;25309;48.686;9.170;2023-07-29T00:04:24;3.40;;;1.50;;
39620;SDS011;25309;48.686;9.170;2023-07-29T00:06:51;2.30;;;1.53;;
39620;SDS011;25309;48.686;9.170;2023-07-29T00:09:18;2.80;;;1.70;;
39620;SDS011;25309;48.686;9.170;2023-07-29T00:11:46;2.10;;;1.47;;
39620;SDS011;25309;48.686;9.170;2023-07-29T00:14:13;2.80;;;1.70;;
39620;SDS011;25309;48.686;9.170;2023-07-29T00:16:40;3.00;;;1.70;;
39620;SDS011;25309;48.686;9.170;2023-07-29T00:19:07;2.80;;;1.80;;
39620;SDS011;25309;48.686;9.170;2023-07-29T00:21:34;3.80;;;2.00;;
39620;SDS011;25309;48.686;9.170;2023-07-29T00:24:01;2.87;;;2.10;;
39620;SDS011;25309;48.686;9.170;2023-07-29T00:26:28;3.80;;;1.87;;
39620;SDS011;25309;48.686;9.170;2023-07-29T00:28:56;3.00;;;2.00;;
39620;SDS011;25309;48.686;9.170;2023-07-29T00:31:24;3.50;;;2.00;;
39620;SDS011;25309;48.686;9.170;2023-07-29T00:33:50;2.40;;;1.87;;
39620;SDS011;25309;48.686;9.170;2023-07-29T00:36:19;2.47;;;1.73;;
39620;SDS011;25309;48.686;9.170;2023-07-29T00:38:46;2.20;;;1.60;;
39620;SDS011;25309;48.686;9.170;2023-07-29T00:41:14;2.73;;;1.97;;
39620;SDS011;25309;48.686;9.170;2023-07-29T00:43:41;2.83;;;1.87;;
39620;SDS011;25309;48.686;9.170;2023-07-29T00:46:09;1.53;;;1.43;;
39620;SDS011;25309;48.686;9.170;2023-07-29T00:48:39;2.93;;;1.73;;
39620;SDS011;25309;48.686;9.170;2023-07-29T00:51:06;2.30;;;1.60;;
39620;SDS011;25309;48.686;9.170;2023-07-29T00:53:33;1.63;;;1.40;;
39620;SDS011;25309;48.686;9.170;2023-07-29T00:56:00;2.33;;;1.60;;
39620;SDS011;25309;48.686;9.170;2023-07-29T00:58:27;2.10;;;1.60;;
39620;SDS011;25309;48.686;9.170;2023-07-29T01:00:54;2.60;;;1.70;;
39620;SDS011;25309;48.686;9.170;2023-07-29T01:03:23;2.53;;;1.80;;
39620;SDS011;25309;48.686;9.170;2023-07-29T01:05:55;2.60;;;1.53;;
39620;SDS011;25309;48.686;9.170;2023-07-29T01:08:31;2.90;;;1.80;;
39620;SDS011;25309;48.686;9.170;2023-07-29T01:11:08;3.03;;;1.70;;
39620;SDS011;25309;48.686;9.170;2023-07-29T01:13:44;3.07;;;1.80;;
39620;SDS011;25309;48.686;9.170;2023-07-29T01:16:17;2.70;;;2.00;;
39620;SDS011;25309;48.686;9.170;2023-07-29T01:18:49;2.07;;;1.57;;
39620;SDS011;25309;48.686;9.170;2023-07-29T01:21:18;1.70;;;1.60;;
39620;SDS011;25309;48.686;9.170;2023-07-29T01:23:48;1.80;;;1.40;;
39620;SDS011;25309;48.686;9.170;2023-07-29T01:26:18;1.73;;;1.40;;
39620;SDS011;25309;48.686;9.170;2023-07-29T01:28:45;1.60;;;1.50;;
39620;SDS011;25309;48.686;9.170;2023-07-29T01:31:13;1.70;;;1.60;;
39620;SDS011;25309;48.686;9.170;2023-07-29T01:33:48;1.70;;;1.40;;
39620;SDS011;25309;48.686;9.170;2023-07-29T01:36:21;1.93;;;1.40;;
39620;SDS011;25309;48.686;9.170;2023-07-29T01:38:53;1.67;;;1.30;;
39620;SDS011;25309;48.686;9.170;2023-07-29T01:41:22;2.10;;;1.50;;
39620;SDS011;25309;48.686;9.170;2023-07-29T01:43:51;2.17;;;1.20;;
39620;SDS011;25309;48.686;9.170;2023-07-29T01:46:19;1.63;;;1.40;;
39620;SDS011;25309;48.686;9.170;2023-07-29T01:48:47;1.50;;;1.30;;
39620;SDS011;25309;48.686;9.170;2023-07-29T01:51:14;1.87;;;1.17;;
39620;SDS011;25309;48.686;9.170;2023-07-29T01:53:41;2.17;;;1.30;;
39620;SDS011;25309;48.686;9.170;2023-07-29T01:56:09;3.67;;;1.20;;
39620;SDS011;25309;48.686;9.170;2023-07-29T01:58:47;1.20;;;1.10;;
39620;SDS011;25309;48.686;9.170;2023-07-29T02:01:14;1.87;;;1.30;;
39620;SDS011;25309;48.686;9.170;2023-07-29T02:03:42;1.33;;;1.20;;
39620;SDS011;25309;48.686;9.170;2023-07-29T02:06:09;1.27;;;1.17;;
39620;SDS011;25309;48.686;9.170;2023-07-29T02:08:36;1.20;;;1.10;;
39620;SDS011;25309;48.686;9.170;2023-07-29T02:11:03;4.10;;;1.43;;
39620;SDS011;25309;48.686;9.170;2023-07-29T02:13:32;1.93;;;1.10;;
39620;SDS011;25309;48.686;9.170;2023-07-29T02:15:59;1.37;;;1.10;;
39620;SDS011;25309;48.686;9.170;2023-07-29T02:18:26;1.67;;;1.20;;
39620;SDS011;25309;48.686;9.170;2023-07-29T02:20:53;2.80;;;1.33;;
39620;SDS011;25309;48.686;9.170;2023-07-29T02:23:20;1.83;;;1.30;;
39620;SDS011;25309;48.686;9.170;2023-07-29T02:25:47;2.07;;;1.33;;
39620;SDS011;25309;48.686;9.170;2023-07-29T02:28:14;1.67;;;1.27;;
39620;SDS011;25309;48.686;9.170;2023-07-29T02:30:42;1.57;;;1.27;;
39620;SDS011;25309;48.686;9.170;2023-07-29T02:33:13;2.67;;;1.30;;
39620;SDS011;25309;48.686;9.170;2023-07-29T02:35:40;1.77;;;1.30;;
39620;SDS011;25309;48.686;9.170;2023-07-29T02:38:07;2.10;;;1.30;;
39620;SDS011;25309;48.686;9.170;2023-07-29T02:40:34;1.33;;;1.20;;
39620;SDS011;25309;48.686;9.170;2023-07-29T02:43:00;2.87;;;1.40;;
39620;SDS011;25309;48.686;9.170;2023-07-29T02:45:27;2.20;;;1.37;;
39620;SDS011;25309;48.686;9.170;2023-07-29T02:47:56;3.43;;;1.30;;
39620;SDS011;25309;48.686;9.170;2023-07-29T02:50:23;1.60;;;1.20;;
39620;SDS011;25309;48.686;9.170;2023-07-29T02:52:50;1.33;;;1.23;;
39620;SDS011;25309;48.686;9.170;2023-07-29T02:55:18;1.97;;;1.20;;
39620;SDS011;25309;48.686;9.170;2023-07-29T02:57:45;2.00;;;1.30;;
39620;SDS011;25309;48.686;9.170;2023-07-29T03:00:12;2.93;;;1.50;;
39620;SDS011;25309;48.686;9.170;2023-07-29T03:02:40;1.80;;;1.30;;
39620;SDS011;25309;48.686;9.170;2023-07-29T03:05:08;2.03;;;1.47;;
39620;SDS011;25309;48.686;9.170;2023-07-29T03:07:36;2.03;;;1.30;;
39620;SDS011;25309;48.686;9.170;2023-07-29T03:10:03;2.17;;;1.33;;
39620;SDS011;25309;48.686;9.170;2023-07-29T03:16:51;1.50;;;1.27;;
39620;SDS011;25309;48.686;9.170;2023-07-29T03:19:19;1.50;;;1.37;;
39620;SDS011;25309;48.686;9.170;2023-07-29T03:21:48;1.70;;;1.27;;
39620;SDS011;25309;48.686;9.170;2023-07-29T03:24:15;3.20;;;1.40;;
39620;SDS011;25309;48.686;9.170;2023-07-29T03:26:42;2.67;;;1.37;;
39620;SDS011;25309;48.686;9.170;2023-07-29T03:29:12;1.57;;;1.37;;
39620;SDS011;25309;48.686;9.170;2023-07-29T03:31:39;1.43;;;1.30;;
39620;SDS011;25309;48.686;9.170;2023-07-29T03:34:06;1.90;;;1.30;;
39620;SDS011;25309;48.686;9.170;2023-07-29T03:36:33;1.97;;;1.30;;
39620;SDS011;25309;48.686;9.170;2023-07-29T03:39:02;1.40;;;1.30;;
39620;SDS011;25309;48.686;9.170;2023-07-29T03:41:31;2.30;;;1.40;;
39620;SDS011;25309;48.686;9.170;2023-07-29T03:43:58;2.93;;;1.60;;
39620;SDS011;25309;48.686;9.170;2023-07-29T03:46:25;3.37;;;1.30;;
39620;SDS011;25309;48.686;9.170;2023-07-29T03:48:52;2.00;;;1.47;;
39620;SDS011;25309;48.686;9.170;2023-07-29T03:51:19;1.57;;;1.30;;
39620;SDS011;25309;48.686;9.170;2023-07-29T03:53:47;3.33;;;1.40;;
39620;SDS011;25309;48.686;9.170;2023-07-29T03:56:15;1.87;;;1.30;;
39620;SDS011;25309;48.686;9.170;2023-07-29T03:58:42;2.90;;;1.50;;
39620;SDS011;25309;48.686;9.170;2023-07-29T04:01:10;2.80;;;1.40;;
39620;SDS011;25309;48.686;9.170;2023-07-29T04:03:37;3.27;;;1.60;;
39620;SDS011;25309;48.686;9.170;2023-07-29T04:06:04;1.70;;;1.50;;
39620;SDS011;25309;48.686;9.170;2023-07-29T04:08:31;2.70;;;1.57;;
39620;SDS011;25309;48.686;9.170;2023-07-29T04:10:58;2.07;;;1.37;;
39620;SDS011;25309;48.686;9.170;2023-07-29T04:13:27;2.27;;;1.40;;
39620;SDS011;25309;48.686;9.170;2023-07-29T04:15:54;2.47;;;1.50;;
39620;SDS011;25309;48.686;9.170;2023-07-29T04:18:21;2.37;;;1.60;;
39620;SDS011;25309;48.686;9.170;2023-07-29T04:20:48;2.40;;;1.47;;
39620;SDS011;25309;48.686;9.170;2023-07-29T04:23:15;3.30;;;1.50;;
39620;SDS011;25309;48.686;9.170;2023-07-29T04:25:42;2.77;;;1.40;;
39620;SDS011;25309;48.686;9.170;2023-07-29T04:28:09;2.00;;;1.53;;
39620;SDS011;25309;48.686;9.170;2023-07-29T04:30:37;2.43;;;1.60;;
39620;SDS011;25309;48.686;9.170;2023-07-29T04:33:04;3.60;;;1.70;;
39620;SDS011;25309;48.686;9.170;2023-07-29T04:35:31;3.20;;;1.80;;
39620;SDS011;25309;48.686;9.170;2023-07-29T04:37:58;4.43;;;1.90;;
39620;SDS011;25309;48.686;9.170;2023-07-29T04:40:25;3.93;;;1.80;;
39620;SDS011;25309;48.686;9.170;2023-07-29T04:42:52;2.73;;;1.93;;
39620;SDS011;25309;48.686;9.170;2023-07-29T04:45:19;3.93;;;1.60;;
39620;SDS011;25309;48.686;9.170;2023-07-29T04:47:47;3.77;;;1.70;;
39620;SDS011;25309;48.686;9.170;2023-07-29T04:50:14;2.57;;;1.73;;
39620;SDS011;25309;48.686;9.170;2023-07-29T04:52:41;3.33;;;1.70;;
39620;SDS011;25309;48.686;9.170;2023-07-29T04:55:08;3.57;;;1.77;;
39620;SDS011;25309;48.686;9.170;2023-07-29T04:57:35;3.40;;;1.67;;
39620;SDS011;25309;48.686;9.170;2023-07-29T05:00:03;2.40;;;1.50;;
39620;SDS011;25309;48.686;9.170;2023-07-29T05:02:30;2.93;;;1.60;;
39620;SDS011;25309;48.686;9.170;2023-07-29T05:04:58;2.80;;;1.70;;
39620;SDS011;25309;48.686;9.170;2023-07-29T05:07:25;3.10;;;1.60;;
39620;SDS011;25309;48.686;9.170;2023-07-29T05:09:52;3.10;;;1.90;;
39620;SDS011;25309;48.686;9.170;2023-07-29T05:12:19;3.13;;;1.70;;
39620;SDS011;25309;48.686;9.170;2023-07-29T05:14:46;2.77;;;1.80;;
39620;SDS011;25309;48.686;9.170;2023-07-29T05:17:13;2.93;;;1.80;;
39620;SDS011;25309;48.686;9.170;2023-07-29T05:19:40;3.03;;;2.00;;
39620;SDS011;25309;48.686;9.170;2023-07-29T05:22:09;2.63;;;1.93;;
39620;SDS011;25309;48.686;9.170;2023-07-29T05:24:36;3.47;;;2.10;;
39620;SDS011;25309;48.686;9.170;2023-07-29T05:27:03;2.83;;;1.90;;
39620;SDS011;25309;48.686;9.170;2023-07-29T05:29:31;2.90;;;2.20;;
39620;SDS011;25309;48.686;9.170;2023-07-29T05:31:57;2.77;;;2.10;;
39620;SDS011;25309;48.686;9.170;2023-07-29T05:34:26;2.97;;;2.13;;
39620;SDS011;25309;48.686;9.170;2023-07-29T05:36:53;3.00;;;2.00;;
39620;SDS011;25309;48.686;9.170;2023-07-29T05:39:21;4.40;;;2.10;;
39620;SDS011;25309;48.686;9.170;2023-07-29T05:41:48;2.47;;;1.90;;
39620;SDS011;25309;48.686;9.170;2023-07-29T05:44:15;2.23;;;1.80;;
39620;SDS011;25309;48.686;9.170;2023-07-29T05:46:42;3.27;;;2.13;;
39620;SDS011;25309;48.686;9.170;2023-07-29T05:49:10;3.87;;;2.03;;
39620;SDS011;25309;48.686;9.170;2023-07-29T05:51:37;2.80;;;1.90;;
39620;SDS011;25309;48.686;9.170;2023-07-29T05:54:04;3.33;;;2.00;;
39620;SDS011;25309;48.686;9.170;2023-07-29T05:56:32;2.63;;;2.00;;
39620;SDS011;25309;48.686;9.170;2023-07-29T05:58:59;3.23;;;1.97;;
39620;SDS011;25309;48.686;9.170;2023-07-29T06:01:26;2.90;;;1.80;;
39620;SDS011;25309;48.686;9.170;2023-07-29T06:03:53;2.50;;;1.90;;
39620;SDS011;25309;48.686;9.170;2023-07-29T06:06:22;3.33;;;1.90;;
39620;SDS011;25309;48.686;9.170;2023-07-29T06:08:49;4.23;;;1.73;;
39620;SDS011;25309;48.686;9.170;2023-07-29T06:11:16;2.33;;;1.60;;
39620;SDS011;25309;48.686;9.170;2023-07-29T06:13:45;2.50;;;1.63;;
39620;SDS011;25309;48.686;9.170;2023-07-29T06:16:14;3.47;;;1.77;;
39620;SDS011;25309;48.686;9.170;2023-07-29T06:18:41;3.47;;;1.60;;
39620;SDS011;25309;48.686;9.170;2023-07-29T06:21:08;3.37;;;1.60;;
39620;SDS011;25309;48.686;9.170;2023-07-29T06:23:38;2.30;;;1.53;;
39620;SDS011;25309;48.686;9.170;2023-07-29T06:26:05;2.30;;;1.80;;
39620;SDS011;25309;48.686;9.170;2023-07-29T06:28:33;2.17;;;1.60;;
39620;SDS011;25309;48.686;9.170;2023-07-29T06:31:01;2.30;;;1.87;;
39620;SDS011;25309;48.686;9.170;2023-07-29T06:33:28;2.73;;;1.83;;
39620;SDS011;25309;48.686;9.170;2023-07-29T06:35:55;2.87;;;1.77;;
39620;SDS011;25309;48.686;9.170;2023-07-29T06:38:22;2.80;;;1.80;;
39620;SDS011;25309;48.686;9.170;2023-07-29T06:40:49;3.87;;;1.87;;
39620;SDS011;25309;48.686;9.170;2023-07-29T06:43:17;3.37;;;1.90;;
39620;SDS011;25309;48.686;9.170;2023-07-29T06:45:44;3.00;;;2.00;;
39620;SDS011;25309;48.686;9.170;2023-07-29T06:48:12;3.43;;;2.10;;
39620;SDS011;25309;48.686;9.170;2023-07-29T06:50:39;9.13;;;2.80;;
39620;SDS011;25309;48.686;9.170;2023-07-29T06:53:06;4.27;;;2.47;;
39620;SDS011;25309;48.686;9.170;2023-07-29T06:55:33;5.07;;;2.60;;
39620;SDS011;25309;48.686;9.170;2023-07-29T06:58:00;3.77;;;2.47;;
39620;SDS011;25309;48.686;9.170;2023-07-29T07:00:27;4.27;;;2.80;;
39620;SDS011;25309;48.686;9.170;2023-07-29T07:02:54;4.63;;;2.77;;
39620;SDS011;25309;48.686;9.170;2023-07-29T07:05:22;6.67;;;3.20;;
39620;SDS011;25309;48.686;9.170;2023-07-29T07:07:49;4.40;;;3.50;;
39620;SDS011;25309;48.686;9.170;2023-07-29T07:10:16;8.27;;;3.63;;
39620;SDS011;25309;48.686;9.170;2023-07-29T07:12:43;5.53;;;3.73;;
39620;SDS011;25309;48.686;9.170;2023-07-29T07:15:10;9.87;;;3.80;;
39620;SDS011;25309;48.686;9.170;2023-07-29T07:17:37;5.37;;;3.93;;
39620;SDS011;25309;48.686;9.170;2023-07-29T07:20:04;6.07;;;3.93;;
39620;SDS011;25309;48.686;9.170;2023-07-29T07:22:34;5.90;;;3.80;;
39620;SDS011;25309;48.686;9.170;2023-07-29T07:25:00;6.57;;;3.27;;
39620;SDS011;25309;48.686;9.170;2023-07-29T07:27:27;5.80;;;2.90;;
39620;SDS011;25309;48.686;9.170;2023-07-29T07:29:54;4.70;;;2.90;;
39620;SDS011;25309;48.686;9.170;2023-07-29T07:32:21;5.23;;;2.90;;
39620;SDS011;25309;48.686;9.170;2023-07-29T07:34:48;3.20;;;2.53;;
39620;SDS011;25309;48.686;9.170;2023-07-29T07:37:15;4.37;;;2.40;;
39620;SDS011;25309;48.686;9.170;2023-07-29T07:39:44;7.80;;;2.80;;
39620;SDS011;25309;48.686;9.170;2023-07-29T07:42:11;4.13;;;2.60;;
39620;SDS011;25309;48.686;9.170;2023-07-29T07:44:38;3.37;;;2.40;;
39620;SDS011;25309;48.686;9.170;2023-07-29T07:47:04;3.40;;;2.57;;
39620;SDS011;25309;48.686;9.170;2023-07-29T07:49:31;5.60;;;2.70;;
39620;SDS011;25309;48.686;9.170;2023-07-29T07:51:58;5.40;;;2.90;;
39620;SDS011;25309;48.686;9.170;2023-07-29T07:54:25;5.17;;;2.83;;
39620;SDS011;25309;48.686;9.170;2023-07-29T07:56:54;4.50;;;3.10;;
39620;SDS011;25309;48.686;9.170;2023-07-29T07:59:21;5.30;;;3.10;;
39620;SDS011;25309;48.686;9.170;2023-07-29T08:01:47;4.37;;;3.00;;
39620;SDS011;25309;48.686;9.170;2023-07-29T08:04:15;3.73;;;2.77;;
39620;SDS011;25309;48.686;9.170;2023-07-29T08:06:41;4.10;;;2.77;;
39620;SDS011;25309;48.686;9.170;2023-07-29T08:09:08;4.83;;;3.03;;
39620;SDS011;25309;48.686;9.170;2023-07-29T08:11:35;5.20;;;3.30;;
39620;SDS011;25309;48.686;9.170;2023-07-29T08:14:04;4.63;;;3.27;;
39620;SDS011;25309;48.686;9.170;2023-07-29T08:16:30;4.27;;;3.13;;
39620;SDS011;25309;48.686;9.170;2023-07-29T08:18:58;5.67;;;3.20;;
39620;SDS011;25309;48.686;9.170;2023-07-29T08:21:26;4.00;;;3.07;;
39620;SDS011;25309;48.686;9.170;2023-07-29T08:23:53;5.27;;;2.90;;
39620;SDS011;25309;48.686;9.170;2023-07-29T08:26:20;4.33;;;2.80;;
39620;SDS011;25309;48.686;9.170;2023-07-29T08:28:47;3.90;;;2.63;;
39620;SDS011;25309;48.686;9.170;2023-07-29T08:31:16;3.03;;;2.43;;
39620;SDS011;25309;48.686;9.170;2023-07-29T08:33:43;4.67;;;2.73;;
39620;SDS011;25309;48.686;9.170;2023-07-29T08:36:10;4.53;;;2.67;;
39620;SDS011;25309;48.686;9.170;2023-07-29T08:38:37;5.93;;;2.90;;
39620;SDS011;25309;48.686;9.170;2023-07-29T08:41:06;3.67;;;2.80;;
39620;SDS011;25309;48.686;9.170;2023-07-29T08:43:41;4.10;;;2.70;;
39620;SDS011;25309;48.686;9.170;2023-07-29T08:46:13;3.57;;;2.43;;
39620;SDS011;25309;48.686;9.170;2023-07-29T08:48:43;5.83;;;2.73;;
39620;SDS011;25309;48.686;9.170;2023-07-29T08:51:10;3.50;;;2.60;;
39620;SDS011;25309;48.686;9.170;2023-07-29T08:53:38;3.37;;;2.30;;
39620;SDS011;25309;48.686;9.170;2023-07-29T08:56:05;3.00;;;2.20;;
39620;SDS011;25309;48.686;9.170;2023-07-29T08:58:33;4.40;;;1.90;;
39620;SDS011;25309;48.686;9.170;2023-07-29T09:01:01;2.87;;;2.47;;
39620;SDS011;25309;48.686;9.170;2023-07-29T09:03:30;2.50;;;2.00;;
39620;SDS011;25309;48.686;9.170;2023-07-29T09:05:57;3.53;;;2.10;;
39620;SDS011;25309;48.686;9.170;2023-07-29T09:08:25;3.17;;;2.23;;
39620;SDS011;25309;48.686;9.170;2023-07-29T09:10:53;4.57;;;2.13;;
39620;SDS011;25309;48.686;9.170;2023-07-29T09:13:20;2.97;;;1.93;;
39620;SDS011;25309;48.686;9.170;2023-07-29T09:15:48;3.57;;;1.80;;
39620;SDS011;25309;48.686;9.170;2023-07-29T09:18:15;3.97;;;2.00;;
39620;SDS011;25309;48.686;9.170;2023-07-29T09:20:44;2.70;;;1.83;;
39620;SDS011;25309;48.686;9.170;2023-07-29T09:23:14;2.73;;;2.10;;
39620;SDS011;25309;48.686;9.170;2023-07-29T09:25:41;2.77;;;1.90;;
39620;SDS011;25309;48.686;9.170;2023-07-29T09:28:09;2.00;;;1.80;;
39620;SDS011;25309;48.686;9.170;2023-07-29T09:30:37;3.23;;;1.90;;
39620;SDS011;25309;48.686;9.170;2023-07-29T09:33:04;2.30;;;1.60;;
39620;SDS011;25309;48.686;9.170;2023-07-29T09:35:32;3.00;;;1.70;;
39620;SDS011;25309;48.686;9.170;2023-07-29T09:38:02;3.00;;;1.70;;
39620;SDS011;25309;48.686;9.170;2023-07-29T09:40:33;3.77;;;1.90;;
39620;SDS011;25309;48.686;9.170;2023-07-29T09:43:02;2.07;;;1.63;;
39620;SDS011;25309;48.686;9.170;2023-07-29T09:45:29;2.90;;;1.83;;
39620;SDS011;25309;48.686;9.170;2023-07-29T09:47:57;1.80;;;1.70;;
39620;SDS011;25309;48.686;9.170;2023-07-29T09:50:25;2.53;;;1.70;;
39620;SDS011;25309;48.686;9.170;2023-07-29T09:52:53;2.10;;;1.70;;
39620;SDS011;25309;48.686;9.170;2023-07-29T09:55:22;2.17;;;1.87;;
39620;SDS011;25309;48.686;9.170;2023-07-29T09:57:53;3.30;;;1.80;;
39620;SDS011;25309;48.686;9.170;2023-07-29T10:00:22;2.70;;;1.67;;
39620;SDS011;25309;48.686;9.170;2023-07-29T10:02:50;2.00;;;1.70;;
39620;SDS011;25309;48.686;9.170;2023-07-29T10:05:18;2.57;;;1.80;;
39620;SDS011;25309;48.686;9.170;2023-07-29T10:07:46;1.77;;;1.67;;
39620;SDS011;25309;48.686;9.170;2023-07-29T10:10:14;2.63;;;1.50;;
39620;SDS011;25309;48.686;9.170;2023-07-29T10:12:44;2.27;;;1.70;;
39620;SDS011;25309;48.686;9.170;2023-07-29T10:15:11;2.50;;;1.77;;
39620;SDS011;25309;48.686;9.170;2023-07-29T10:17:38;2.80;;;1.90;;
39620;SDS011;25309;48.686;9.170;2023-07-29T10:20:06;2.10;;;1.50;;
39620;SDS011;25309;48.686;9.170;2023-07-29T10:22:38;2.20;;;1.80;;
39620;SDS011;25309;48.686;9.170;2023-07-29T10:25:07;2.40;;;1.90;;
39620;SDS011;25309;48.686;9.170;2023-07-29T10:27:39;2.37;;;1.80;;
39620;SDS011;25309;48.686;9.170;2023-07-29T10:30:11;2.70;;;1.67;;
39620;SDS011;25309;48.686;9.170;2023-07-29T10:32:41;3.00;;;1.60;;
39620;SDS011;25309;48.686;9.170;2023-07-29T10:35:12;2.20;;;1.57;;
39620;SDS011;25309;48.686;9.170;2023-07-29T10:37:40;3.20;;;1.97;;
39620;SDS011;25309;48.686;9.170;2023-07-29T10:40:09;4.03;;;1.90;;
39620;SDS011;25309;48.686;9.170;2023-07-29T10:42:37;2.63;;;1.70;;
39620;SDS011;25309;48.686;9.170;2023-07-29T10:45:19;2.23;;;1.80;;
39620;SDS011;25309;48.686;9.170;2023-07-29T10:47:47;1.97;;;1.70;;
39620;SDS011;25309;48.686;9.170;2023-07-29T10:50:18;2.23;;;1.77;;
39620;SDS011;25309;48.686;9.170;2023-07-29T10:52:50;1.90;;;1.70;;
39620;SDS011;25309;48.686;9.170;2023-07-29T10:55:28;3.97;;;1.70;;
39620;SDS011;25309;48.686;9.170;2023-07-29T10:58:08;2.23;;;1.70;;
39620;SDS011;25309;48.686;9.170;2023-07-29T11:00:39;2.67;;;1.50;;
39620;SDS011;25309;48.686;9.170;2023-07-29T11:03:07;2.13;;;1.60;;
39620;SDS011;25309;48.686;9.170;2023-07-29T11:05:41;2.03;;;1.60;;
39620;SDS011;25309;48.686;9.170;2023-07-29T11:08:27;2.50;;;1.50;;
39620;SDS011;25309;48.686;9.170;2023-07-29T11:10:58;2.00;;;1.73;;
39620;SDS011;25309;48.686;9.170;2023-07-29T11:13:30;1.87;;;1.70;;
39620;SDS011;25309;48.686;9.170;2023-07-29T11:15:59;1.90;;;1.70;;
39620;SDS011;25309;48.686;9.170;2023-07-29T11:18:28;1.80;;;1.50;;
39620;SDS011;25309;48.686;9.170;2023-07-29T11:20:56;2.63;;;1.70;;
39620;SDS011;25309;48.686;9.170;2023-07-29T11:23:28;2.30;;;1.80;;
39620;SDS011;25309;48.686;9.170;2023-07-29T11:25:56;2.63;;;1.70;;
39620;SDS011;25309;48.686;9.170;2023-07-29T11:28:24;3.13;;;1.80;;
39620;SDS011;25309;48.686;9.170;2023-07-29T11:30:52;1.93;;;1.70;;
39620;SDS011;25309;48.686;9.170;2023-07-29T11:33:21;2.20;;;1.80;;
39620;SDS011;25309;48.686;9.170;2023-07-29T11:35:50;2.23;;;1.67;;
39620;SDS011;25309;48.686;9.170;2023-07-29T11:38:19;2.90;;;1.80;;
39620;SDS011;25309;48.686;9.170;2023-07-29T11:40:54;2.33;;;1.80;;
39620;SDS011;25309;48.686;9.170;2023-07-29T11:43:22;2.83;;;1.60;;
39620;SDS011;25309;48.686;9.170;2023-07-29T11:45:49;1.93;;;1.63;;
39620;SDS011;25309;48.686;9.170;2023-07-29T11:48:18;1.90;;;1.67;;
39620;SDS011;25309;48.686;9.170;2023-07-29T11:50:46;2.20;;;1.90;;
39620;SDS011;25309;48.686;9.170;2023-07-29T11:53:13;2.07;;;1.70;;
39620;SDS011;25309;48.686;9.170;2023-07-29T11:55:43;2.60;;;1.90;;
39620;SDS011;25309;48.686;9.170;2023-07-29T11:58:09;2.80;;;1.80;;
39620;SDS011;25309;48.686;9.170;2023-07-29T12:00:37;2.60;;;1.73;;
39620;SDS011;25309;48.686;9.170;2023-07-29T12:03:04;2.33;;;1.70;;
39620;SDS011;25309;48.686;9.170;2023-07-29T12:05:32;2.30;;;1.60;;
39620;SDS011;25309;48.686;9.170;2023-07-29T12:08:00;2.80;;;1.73;;
39620;SDS011;25309;48.686;9.170;2023-07-29T12:10:27;2.20;;;1.60;;
39620;SDS011;25309;48.686;9.170;2023-07-29T12:12:55;2.83;;;1.80;;
39620;SDS011;25309;48.686;9.170;2023-07-29T12:15:25;2.93;;;1.67;;
39620;SDS011;25309;48.686;9.170;2023-07-29T12:17:53;2.70;;;1.70;;
39620;SDS011;25309;48.686;9.170;2023-07-29T12:20:23;2.23;;;1.80;;
39620;SDS011;25309;48.686;9.170;2023-07-29T12:22:53;1.70;;;1.60;;
39620;SDS011;25309;48.686;9.170;2023-07-29T12:25:24;2.63;;;1.70;;
39620;SDS011;25309;48.686;9.170;2023-07-29T12:27:52;2.00;;;1.73;;
39620;SDS011;25309;48.686;9.170;2023-07-29T12:30:20;2.43;;;1.90;;
39620;SDS011;25309;48.686;9.170;2023-07-29T12:32:47;2.50;;;1.73;;
39620;SDS011;25309;48.686;9.170;2023-07-29T12:35:14;2.40;;;1.80;;
39620;SDS011;25309;48.686;9.170;2023-07-29T12:37:42;3.83;;;1.77;;
39620;SDS011;25309;48.686;9.170;2023-07-29T12:40:20;2.63;;;1.60;;
39620;SDS011;25309;48.686;9.170;2023-07-29T12:42:50;2.17;;;1.60;;
39620;SDS011;25309;48.686;9.170;2023-07-29T12:45:17;2.77;;;1.70;;
39620;SDS011;25309;48.686;9.170;2023-07-29T12:47:45;2.30;;;1.70;;
39620;SDS011;25309;48.686;9.170;2023-07-29T12:50:12;2.67;;;1.60;;
39620;SDS011;25309;48.686;9.170;2023-07-29T12:52:39;2.87;;;1.90;;
39620;SDS011;25309;48.686;9.170;2023-07-29T12:55:06;2.00;;;1.80;;
39620;SDS011;25309;48.686;9.170;2023-07-29T12:57:35;2.37;;;1.60;;
39620;SDS011;25309;48.686;9.170;2023-07-29T13:00:04;1.97;;;1.70;;
39620;SDS011;25309;48.686;9.170;2023-07-29T13:02:32;2.63;;;1.90;;
39620;SDS011;25309;48.686;9.170;2023-07-29T13:04:59;3.43;;;1.63;;
39620;SDS011;25309;48.686;9.170;2023-07-29T13:07:26;3.90;;;1.67;;
39620;SDS011;25309;48.686;9.170;2023-07-29T13:09:53;2.00;;;1.70;;
39620;SDS011;25309;48.686;9.170;2023-07-29T13:12:20;1.93;;;1.50;;
39620;SDS011;25309;48.686;9.170;2023-07-29T13:14:47;3.13;;;1.80;;
39620;SDS011;25309;48.686;9.170;2023-07-29T13:17:15;2.23;;;1.50;;
39620;SDS011;25309;48.686;9.170;2023-07-29T13:19:42;1.93;;;1.50;;
39620;SDS011;25309;48.686;9.170;2023-07-29T13:22:09;2.00;;;1.50;;
39620;SDS011;25309;48.686;9.170;2023-07-29T13:24:36;2.37;;;1.63;;
39620;SDS011;25309;48.686;9.170;2023-07-29T13:27:03;2.77;;;1.80;;
39620;SDS011;25309;48.686;9.170;2023-07-29T13:29:31;2.10;;;1.67;;
39620;SDS011;25309;48.686;9.170;2023-07-29T13:31:58;1.73;;;1.60;;
39620;SDS011;25309;48.686;9.170;2023-07-29T13:34:26;2.63;;;1.90;;
39620;SDS011;25309;48.686;9.170;2023-07-29T13:36:53;2.07;;;1.50;;
39620;SDS011;25309;48.686;9.170;2023-07-29T13:39:20;2.13;;;1.70;;
39620;SDS011;25309;48.686;9.170;2023-07-29T13:41:47;2.50;;;1.60;;
39620;SDS011;25309;48.686;9.170;2023-07-29T13:44:14;2.17;;;1.80;;
39620;SDS011;25309;48.686;9.170;2023-07-29T13:46:41;1.53;;;1.43;;
39620;SDS011;25309;48.686;9.170;2023-07-29T13:49:08;1.80;;;1.57;;
39620;SDS011;25309;48.686;9.170;2023-07-29T13:51:36;2.20;;;1.40;;
39620;SDS011;25309;48.686;9.170;2023-07-29T13:54:03;2.00;;;1.80;;
39620;SDS011;25309;48.686;9.170;2023-07-29T13:56:30;1.70;;;1.60;;
39620;SDS011;25309;48.686;9.170;2023-07-29T13:58:57;2.37;;;1.90;;
39620;SDS011;25309;48.686;9.170;2023-07-29T14:01:24;2.27;;;1.80;;
39620;SDS011;25309;48.686;9.170;2023-07-29T14:03:51;2.03;;;1.60;;
39620;SDS011;25309;48.686;9.170;2023-07-29T14:06:18;3.43;;;1.67;;
39620;SDS011;25309;48.686;9.170;2023-07-29T14:09:06;1.80;;;1.57;;
39620;SDS011;25309;48.686;9.170;2023-07-29T14:11:34;4.23;;;1.83;;
39620;SDS011;25309;48.686;9.170;2023-07-29T14:14:01;2.33;;;1.70;;
39620;SDS011;25309;48.686;9.170;2023-07-29T14:16:28;2.07;;;1.87;;
39620;SDS011;25309;48.686;9.170;2023-07-29T14:18:55;2.63;;;1.60;;
39620;SDS011;25309;48.686;9.170;2023-07-29T14:21:22;2.30;;;1.67;;
39620;SDS011;25309;48.686;9.170;2023-07-29T14:23:49;2.57;;;1.83;;
39620;SDS011;25309;48.686;9.170;2023-07-29T14:26:17;2.57;;;1.73;;
39620;SDS011;25309;48.686;9.170;2023-07-29T14:28:44;2.20;;;2.00;;
39620;SDS011;25309;48.686;9.170;2023-07-29T14:31:11;2.30;;;1.83;;
39620;SDS011;25309;48.686;9.170;2023-07-29T14:33:38;2.07;;;1.80;;
39620;SDS011;25309;48.686;9.170;2023-07-29T14:36:05;3.43;;;1.93;;
39620;SDS011;25309;48.686;9.170;2023-07-29T14:38:34;1.77;;;1.67;;
39620;SDS011;25309;48.686;9.170;2023-07-29T14:41:01;3.43;;;1.83;;
39620;SDS011;25309;48.686;9.170;2023-07-29T14:43:30;2.10;;;1.60;;
39620;SDS011;25309;48.686;9.170;2023-07-29T14:45:57;2.50;;;1.80;;
39620;SDS011;25309;48.686;9.170;2023-07-29T14:48:24;2.43;;;1.60;;
39620;SDS011;25309;48.686;9.170;2023-07-29T14:50:51;1.80;;;1.60;;
39620;SDS011;25309;48.686;9.170;2023-07-29T14:53:18;1.73;;;1.60;;
39620;SDS011;25309;48.686;9.170;2023-07-29T14:55:45;2.20;;;1.70;;
39620;SDS011;25309;48.686;9.170;2023-07-29T14:58:12;2.73;;;1.80;;